Time;durP1;ratioP1;P1;durP2;ratioP2;P2;SDS_P1;SDS_P2;PMS_P1;PMS_P2;Temp;Humidity;BMP_temperature;BMP_pressure;BME280_temperature;BME280_humidity;BME280_pressure;Samples;Min_cycle;Max_cycle;Signal;HPM_P1;HPM_P2
2024/02/03 00:02:24;;;;;;;20.77;10.80;;;9.80;99.90;;;;;;5014975;28;20408;-78
2024/02/03 00:04:49;;;;;;;22.10;9.30;;;9.80;99.90;;;;;;5015220;28;20497;-76
2024/02/03 00:07:15;;;;;;;18.90;8.63;;;9.80;99.90;;;;;;5014914;28;20045;-76
2024/02/03 00:09:41;;;;;;;15.70;9.10;;;9.80;99.90;;;;;;5015051;28;20052;-76
2024/02/03 00:12:07;;;;;;;14.30;8.00;;;9.80;99.90;;;;;;4998717;28;20045;-76
2024/02/03 00:14:33;;;;;;;24.40;11.00;;;9.70;99.90;;;;;;5015050;28;20049;-76
2024/02/03 00:16:59;;;;;;;26.33;9.23;;;9.80;99.90;;;;;;5032533;28;20409;-76
2024/02/03 00:19:24;;;;;;;18.50;8.45;;;9.90;99.90;;;;;;5014633;28;20033;-76
2024/02/03 00:21:50;;;;;;;17.40;8.10;;;9.80;99.90;;;;;;5014947;28;20180;-76
2024/02/03 00:24:15;;;;;;;16.73;8.35;;;9.80;99.90;;;;;;5015145;28;20124;-76
2024/02/03 00:26:41;;;;;;;15.18;7.38;;;9.90;99.90;;;;;;5014676;28;20501;-76
2024/02/03 00:29:07;;;;;;;18.30;8.85;;;9.80;99.90;;;;;;5032565;28;20060;-76
2024/02/03 00:31:33;;;;;;;19.33;7.20;;;9.90;99.90;;;;;;5014741;28;20179;-76
2024/02/03 00:33:58;;;;;;;19.02;7.05;;;10.00;99.90;;;;;;4998296;28;20413;-76
2024/02/03 00:36:25;;;;;;;22.80;8.13;;;9.80;99.90;;;;;;5032370;28;20049;-76
2024/02/03 00:38:51;;;;;;;16.67;7.53;;;9.90;99.90;;;;;;5014533;28;20033;-76
2024/02/03 00:41:17;;;;;;;16.48;9.23;;;9.80;99.90;;;;;;4997790;28;20041;-76
2024/02/03 00:43:43;;;;;;;14.85;7.15;;;9.70;99.90;;;;;;4998416;28;20098;-76
2024/02/03 00:46:10;;;;;;;22.60;8.18;;;9.70;99.90;;;;;;5032279;28;20034;-76
2024/02/03 00:48:36;;;;;;;20.50;7.85;;;9.80;99.90;;;;;;5014367;28;20073;-76
2024/02/03 00:51:02;;;;;;;18.35;8.15;;;9.70;99.90;;;;;;5032120;28;20048;-76
2024/02/03 00:53:27;;;;;;;21.75;8.65;;;9.80;99.90;;;;;;4998438;28;20045;-76
2024/02/03 00:55:53;;;;;;;11.68;6.40;;;9.80;99.90;;;;;;4998058;28;20048;-76
2024/02/03 00:58:18;;;;;;;15.73;6.68;;;9.90;99.90;;;;;;5014236;28;20049;-76
2024/02/03 01:00:44;;;;;;;20.30;6.93;;;9.80;99.90;;;;;;4997746;28;20136;-76
2024/02/03 01:03:09;;;;;;;20.52;8.85;;;9.80;99.90;;;;;;5014163;28;20033;-76
2024/02/03 01:05:37;;;;;;;19.20;7.53;;;9.90;99.90;;;;;;5014135;28;20374;-76
2024/02/03 01:08:03;;;;;;;11.70;6.20;;;9.80;99.90;;;;;;5031795;28;20041;-76
2024/02/03 01:10:29;;;;;;;16.73;6.07;;;9.80;99.90;;;;;;5031586;28;20045;-76
2024/02/03 01:12:54;;;;;;;11.43;6.25;;;9.80;99.90;;;;;;5031935;28;20422;-76
2024/02/03 01:15:20;;;;;;;16.98;6.47;;;9.80;99.90;;;;;;5030977;28;20045;-76
2024/02/03 01:17:46;;;;;;;16.10;6.18;;;9.70;99.90;;;;;;5014110;28;20052;-76
2024/02/03 01:20:12;;;;;;;16.55;6.70;;;9.70;99.90;;;;;;5013804;28;20560;-76
2024/02/03 01:22:37;;;;;;;14.13;5.57;;;9.80;99.90;;;;;;5013924;28;20413;-76
2024/02/03 01:25:03;;;;;;;12.15;5.40;;;9.90;99.90;;;;;;5013761;28;20033;-76
2024/02/03 01:27:29;;;;;;;8.45;4.63;;;9.90;99.90;;;;;;5031680;28;20037;-76
2024/02/03 01:29:56;;;;;;;11.60;5.15;;;9.90;99.90;;;;;;5013755;28;20044;-76
2024/02/03 01:32:22;;;;;;;9.98;5.32;;;9.90;99.90;;;;;;5014050;28;20045;-76
2024/02/03 01:34:47;;;;;;;14.02;4.97;;;9.90;99.90;;;;;;5014083;28;20515;-76
2024/02/03 01:37:13;;;;;;;10.20;4.65;;;9.90;99.90;;;;;;5031342;28;20099;-76
2024/02/03 01:39:41;;;;;;;14.35;4.95;;;10.00;99.90;;;;;;5031179;28;20409;-76
2024/02/03 01:42:06;;;;;;;13.18;5.25;;;9.90;99.90;;;;;;5013970;28;20052;-76
2024/02/03 01:44:32;;;;;;;11.88;5.38;;;10.00;99.90;;;;;;5013766;28;20034;-76
2024/02/03 01:46:59;;;;;;;14.57;4.53;;;10.00;99.90;;;;;;5031414;28;20405;-76
2024/02/03 01:49:30;;;;;;;12.95;4.45;;;10.00;99.90;;;;;;5013597;28;20048;-76
2024/02/03 01:51:57;;;;;;;11.38;4.88;;;9.90;99.90;;;;;;5013896;28;20150;-76
2024/02/03 01:54:24;;;;;;;9.95;3.97;;;9.90;99.90;;;;;;5013745;28;20115;-76
2024/02/03 01:56:54;;;;;;;8.85;4.72;;;9.90;99.90;;;;;;5013537;28;20041;-76
2024/02/03 01:59:21;;;;;;;7.80;4.15;;;9.90;99.90;;;;;;5013567;28;20630;-76
2024/02/03 02:01:48;;;;;;;11.60;3.72;;;9.90;99.90;;;;;;5031306;28;20046;-76
2024/02/03 02:04:14;;;;;;;7.68;3.78;;;9.90;99.90;;;;;;5031325;28;20045;-76
2024/02/03 02:06:39;;;;;;;10.07;4.15;;;10.00;99.90;;;;;;5031039;28;20040;-76
2024/02/03 02:09:05;;;;;;;7.95;3.25;;;10.10;99.90;;;;;;4997260;28;20048;-76
2024/02/03 02:11:31;;;;;;;6.10;3.03;;;10.00;99.90;;;;;;5031390;28;20559;-77
2024/02/03 02:13:56;;;;;;;8.65;4.35;;;10.00;99.90;;;;;;5031303;28;20099;-76
2024/02/03 02:16:22;;;;;;;8.82;3.60;;;10.00;99.90;;;;;;5013184;28;20468;-76
2024/02/03 02:18:48;;;;;;;9.35;3.70;;;10.00;99.90;;;;;;5031115;28;20113;-76
2024/02/03 02:21:14;;;;;;;14.02;3.80;;;10.10;99.90;;;;;;5013287;28;20416;-76
2024/02/03 02:23:39;;;;;;;11.27;3.75;;;10.20;99.90;;;;;;5013356;28;20040;-76
2024/02/03 02:26:05;;;;;;;8.70;4.00;;;10.10;99.90;;;;;;5033227;28;20037;-76
2024/02/03 02:28:32;;;;;;;6.80;3.15;;;10.20;99.90;;;;;;5034874;28;20528;-76
2024/02/03 02:30:57;;;;;;;10.73;3.50;;;10.20;99.90;;;;;;5034476;28;20404;-76
2024/02/03 02:33:23;;;;;;;6.55;3.25;;;10.20;99.90;;;;;;5034803;28;20124;-76
2024/02/03 02:35:50;;;;;;;9.98;4.10;;;10.10;99.90;;;;;;5016806;28;20099;-76
2024/02/03 02:38:18;;;;;;;8.80;3.78;;;10.20;99.90;;;;;;5016965;28;20056;-76
2024/02/03 02:40:44;;;;;;;14.02;3.78;;;10.20;99.90;;;;;;5000209;28;20044;-76
2024/02/03 02:43:09;;;;;;;8.75;3.58;;;10.20;99.90;;;;;;5000444;28;20034;-76
2024/02/03 02:45:35;;;;;;;7.97;3.60;;;10.20;99.90;;;;;;5016922;28;20041;-76
2024/02/03 02:48:01;;;;;;;8.85;3.65;;;10.30;99.90;;;;;;5016569;28;20489;-76
2024/02/03 02:50:27;;;;;;;9.65;3.08;;;10.20;99.90;;;;;;5016466;28;20128;-76
2024/02/03 02:52:52;;;;;;;11.48;3.50;;;10.20;99.90;;;;;;5016902;28;20137;-76
2024/02/03 02:55:18;;;;;;;10.52;4.47;;;10.30;99.90;;;;;;5016575;28;20513;-76
2024/02/03 02:57:43;;;;;;;8.80;3.97;;;10.30;99.90;;;;;;5034310;28;20418;-76
2024/02/03 03:00:11;;;;;;;6.30;3.90;;;10.20;99.90;;;;;;5034038;28;20038;-76
2024/02/03 03:02:37;;;;;;;7.18;3.42;;;10.20;99.90;;;;;;5016463;28;20116;-76
2024/02/03 03:05:03;;;;;;;8.77;3.53;;;10.30;99.90;;;;;;5016146;28;20553;-76
2024/02/03 03:07:29;;;;;;;7.72;3.83;;;10.30;99.90;;;;;;5034208;28;20452;-76
2024/02/03 03:09:55;;;;;;;10.65;3.42;;;10.20;99.90;;;;;;5016152;28;20041;-76
2024/02/03 03:12:20;;;;;;;9.52;4.18;;;10.30;99.90;;;;;;5016466;28;20037;-76
2024/02/03 03:14:46;;;;;;;14.65;4.32;;;10.30;99.90;;;;;;5034089;28;20067;-76
2024/02/03 03:17:12;;;;;;;6.30;4.13;;;10.30;99.90;;;;;;5033789;28;20034;-76
2024/02/03 03:19:37;;;;;;;8.85;3.63;;;10.30;99.90;;;;;;5033598;28;20034;-76
2024/02/03 03:22:04;;;;;;;10.63;4.28;;;10.30;99.90;;;;;;5016166;28;20044;-76
2024/02/03 03:24:29;;;;;;;7.95;3.42;;;10.30;99.90;;;;;;4999821;28;20041;-76
2024/02/03 03:26:55;;;;;;;10.70;4.45;;;10.30;99.90;;;;;;5015718;28;20082;-76
2024/02/03 03:29:21;;;;;;;9.55;3.95;;;10.40;99.90;;;;;;5033560;28;20037;-76
2024/02/03 03:31:46;;;;;;;7.30;3.85;;;10.30;99.90;;;;;;5033694;28;20041;-76
2024/02/03 03:34:13;;;;;;;12.52;4.57;;;10.40;99.90;;;;;;5016004;28;20038;-76
2024/02/03 03:36:39;;;;;;;9.93;4.63;;;10.40;99.90;;;;;;5032876;28;20092;-76
2024/02/03 03:39:05;;;;;;;14.55;4.45;;;10.30;99.90;;;;;;5033429;28;20123;-76
2024/02/03 03:41:30;;;;;;;9.45;4.22;;;10.40;99.90;;;;;;5033585;28;20493;-76
2024/02/03 03:43:56;;;;;;;11.57;4.50;;;10.20;99.90;;;;;;5015880;28;20091;-76
2024/02/03 03:46:21;;;;;;;10.10;3.70;;;10.30;99.90;;;;;;5015568;28;20520;-76
2024/02/03 03:48:47;;;;;;;13.25;4.43;;;10.30;99.90;;;;;;5033202;28;20034;-76
2024/02/03 03:51:12;;;;;;;11.98;4.13;;;10.40;99.90;;;;;;5033324;28;20520;-76
2024/02/03 03:53:38;;;;;;;11.27;3.78;;;10.40;99.90;;;;;;5015609;28;20091;-76
2024/02/03 03:56:06;;;;;;;9.95;4.05;;;10.40;99.90;;;;;;5015384;28;20068;-77
2024/02/03 03:58:31;;;;;;;9.45;3.55;;;10.40;99.90;;;;;;4999030;28;20075;-76
2024/02/03 04:00:57;;;;;;;7.68;3.70;;;10.30;99.90;;;;;;5015144;28;20144;-76
2024/02/03 04:03:23;;;;;;;8.70;4.25;;;10.30;99.90;;;;;;5015287;28;20037;-76
2024/02/03 04:05:48;;;;;;;11.43;4.32;;;10.30;99.90;;;;;;5015490;28;20041;-76
2024/02/03 04:08:15;;;;;;;8.40;3.45;;;10.30;99.90;;;;;;5015136;28;20084;-76
2024/02/03 04:10:40;;;;;;;8.02;3.47;;;10.30;99.90;;;;;;5014990;28;20046;-76
2024/02/03 04:13:06;;;;;;;9.63;3.83;;;10.30;99.90;;;;;;5015098;28;20413;-76
2024/02/03 04:15:32;;;;;;;12.20;4.03;;;10.20;99.90;;;;;;5043038;22;20398;-72
2024/02/03 04:17:58;;;;;;;9.75;3.65;;;10.20;99.90;;;;;;5070992;28;20033;-72
2024/02/03 04:20:24;;;;;;;14.77;3.53;;;10.30;99.90;;;;;;5070770;28;20132;-72
2024/02/03 04:22:50;;;;;;;13.80;3.03;;;10.20;99.90;;;;;;5072028;28;20102;-72
2024/02/03 04:25:15;;;;;;;9.35;3.45;;;10.20;99.90;;;;;;5072426;28;20476;-72
2024/02/03 04:27:41;;;;;;;6.63;3.28;;;10.20;99.90;;;;;;5072260;28;20036;-71
2024/02/03 04:30:07;;;;;;;8.00;3.72;;;10.30;99.90;;;;;;5072570;28;20402;-72
2024/02/03 04:32:33;;;;;;;8.88;3.40;;;10.20;99.90;;;;;;5071083;28;20044;-72
2024/02/03 04:34:59;;;;;;;10.23;3.85;;;10.20;99.90;;;;;;5072271;28;20033;-71
2024/02/03 04:37:24;;;;;;;6.38;3.42;;;10.20;99.90;;;;;;5072051;28;20119;-72
2024/02/03 04:39:51;;;;;;;8.77;3.70;;;10.20;99.90;;;;;;5070743;28;20123;-72
2024/02/03 04:42:17;;;;;;;11.65;4.00;;;10.10;99.90;;;;;;5072104;28;20101;-72
2024/02/03 04:44:42;;;;;;;9.85;4.97;;;10.10;99.90;;;;;;5071975;28;20032;-72
2024/02/03 04:47:08;;;;;;;10.85;3.95;;;10.20;99.90;;;;;;5072077;28;20036;-72
2024/02/03 04:49:34;;;;;;;7.93;3.67;;;10.30;99.90;;;;;;5070574;28;20520;-71
2024/02/03 04:52:00;;;;;;;9.43;3.95;;;10.10;99.90;;;;;;5072050;28;20075;-71
2024/02/03 04:54:30;;;;;;;14.70;4.47;;;10.20;99.90;;;;;;5070703;28;20539;-71
2024/02/03 04:56:55;;;;;;;9.82;3.58;;;10.30;99.90;;;;;;5070404;28;20085;-71
2024/02/03 04:59:21;;;;;;;10.35;3.58;;;10.20;99.90;;;;;;5070227;28;20408;-71
2024/02/03 05:01:47;;;;;;;10.00;3.50;;;10.20;99.90;;;;;;5070667;28;20048;-71
2024/02/03 05:04:12;;;;;;;8.48;3.88;;;10.30;99.90;;;;;;5070445;28;20040;-72
2024/02/03 05:06:38;;;;;;;9.40;3.40;;;10.30;99.90;;;;;;5071719;28;20412;-72
2024/02/03 05:09:04;;;;;;;8.13;3.42;;;10.20;99.90;;;;;;5070349;28;20224;-72
2024/02/03 05:11:30;;;;;;;7.43;3.80;;;10.20;99.90;;;;;;5053566;28;20431;-71
2024/02/03 05:13:55;;;;;;;10.02;3.92;;;10.30;99.90;;;;;;5070338;28;20048;-71
2024/02/03 05:16:21;;;;;;;4.70;3.13;;;10.10;99.90;;;;;;5071511;28;20047;-72
2024/02/03 05:18:47;;;;;;;10.00;3.60;;;10.10;99.90;;;;;;5071596;28;20454;-71
2024/02/03 05:21:12;;;;;;;10.65;4.60;;;10.20;99.90;;;;;;5071318;28;20455;-72
2024/02/03 05:23:38;;;;;;;8.65;3.13;;;10.10;99.90;;;;;;5070474;28;20040;-72
2024/02/03 05:26:04;;;;;;;8.30;3.72;;;10.10;99.90;;;;;;5071390;28;20072;-72
2024/02/03 05:28:29;;;;;;;11.27;4.32;;;10.00;99.90;;;;;;5071374;28;20033;-71
2024/02/03 05:30:55;;;;;;;9.50;4.35;;;10.00;99.90;;;;;;5071530;28;20037;-71
2024/02/03 05:33:20;;;;;;;11.30;3.83;;;10.10;99.90;;;;;;5070500;28;20127;-72
2024/02/03 05:35:46;;;;;;;16.52;4.15;;;10.20;99.90;;;;;;5070033;28;20564;-72
2024/02/03 05:38:12;;;;;;;8.75;3.65;;;10.10;99.90;;;;;;5071351;28;20036;-71
2024/02/03 05:40:38;;;;;;;7.20;4.10;;;10.20;99.90;;;;;;5069953;28;20045;-72
2024/02/03 05:43:04;;;;;;;8.65;3.38;;;10.10;99.90;;;;;;5070106;28;20098;-72
2024/02/03 05:45:29;;;;;;;16.88;4.93;;;10.10;99.90;;;;;;5070217;28;20083;-71
2024/02/03 05:47:55;;;;;;;8.32;4.30;;;10.20;99.90;;;;;;5069997;28;20552;-71
2024/02/03 05:50:20;;;;;;;9.15;3.47;;;10.20;99.90;;;;;;5069872;28;20047;-71
2024/02/03 05:52:46;;;;;;;11.43;3.97;;;10.10;99.90;;;;;;5070136;28;20123;-72
2024/02/03 05:55:12;;;;;;;8.60;4.00;;;10.10;99.90;;;;;;5069786;28;20040;-72
2024/02/03 05:57:51;;;;;;;12.23;5.32;;;10.20;99.90;;;;;;5069759;28;20045;-71
2024/02/03 06:00:18;;;;;;;9.10;4.25;;;10.20;99.90;;;;;;5070793;28;20037;-72
2024/02/03 06:02:45;;;;;;;8.82;4.00;;;10.20;99.90;;;;;;5057296;28;20041;-72
2024/02/03 06:05:11;;;;;;;9.90;4.30;;;10.10;99.90;;;;;;5073873;28;20032;-72
2024/02/03 06:07:37;;;;;;;10.40;4.30;;;10.10;99.90;;;;;;5074039;28;20036;-72
2024/02/03 06:10:02;;;;;;;13.48;5.13;;;10.20;99.90;;;;;;5073434;28;20132;-72
2024/02/03 06:12:28;;;;;;;11.75;4.55;;;10.20;99.90;;;;;;5073711;28;20070;-72
2024/02/03 06:14:54;;;;;;;11.90;4.47;;;10.10;99.90;;;;;;5075060;28;20068;-72
2024/02/03 06:17:20;;;;;;;7.47;4.00;;;10.20;99.90;;;;;;5073363;28;20050;-72
2024/02/03 06:19:45;;;;;;;9.18;3.60;;;10.10;99.90;;;;;;5073568;28;20048;-72
2024/02/03 06:22:11;;;;;;;13.15;3.55;;;10.10;99.90;;;;;;5075371;28;20043;-72
2024/02/03 06:24:37;;;;;;;11.25;4.45;;;10.20;99.90;;;;;;5074879;28;20491;-72
2024/02/03 06:27:03;;;;;;;11.10;3.90;;;10.00;99.90;;;;;;5073754;28;20032;-72
2024/02/03 06:29:28;;;;;;;10.07;4.47;;;10.10;99.90;;;;;;5073844;28;20037;-72
2024/02/03 06:31:54;;;;;;;9.23;3.97;;;10.00;99.90;;;;;;5073546;28;20508;-72
2024/02/03 06:34:19;;;;;;;9.60;3.80;;;10.10;99.90;;;;;;5075074;28;20029;-72
2024/02/03 06:36:45;;;;;;;14.07;4.47;;;10.10;99.90;;;;;;5073459;28;20048;-73
2024/02/03 06:39:11;;;;;;;8.57;3.80;;;10.00;99.90;;;;;;5073271;28;20037;-72
2024/02/03 06:41:36;;;;;;;13.15;4.45;;;10.10;99.90;;;;;;5074598;28;20492;-71
2024/02/03 06:44:02;;;;;;;9.70;4.85;;;10.10;99.90;;;;;;5073451;28;20127;-72
2024/02/03 06:46:27;;;;;;;10.90;4.93;;;10.00;99.90;;;;;;5072998;28;20534;-72
2024/02/03 06:48:53;;;;;;;13.13;3.85;;;10.10;99.90;;;;;;5056325;28;20082;-72
2024/02/03 06:51:19;;;;;;;7.15;4.28;;;10.10;99.90;;;;;;5074073;28;20474;-72
2024/02/03 06:53:44;;;;;;;12.95;4.28;;;10.00;99.90;;;;;;5074119;28;20046;-72
2024/02/03 06:56:10;;;;;;;11.13;5.03;;;10.10;99.90;;;;;;5072738;28;20460;-72
2024/02/03 06:58:35;;;;;;;8.30;4.88;;;10.00;99.90;;;;;;5056326;28;20067;-72
2024/02/03 07:01:01;;;;;;;11.43;4.30;;;10.00;99.90;;;;;;5073731;28;20507;-72
2024/02/03 07:03:27;;;;;;;11.18;4.95;;;10.00;99.90;;;;;;5072727;28;20086;-72
2024/02/03 07:05:53;;;;;;;10.35;4.25;;;9.90;99.90;;;;;;5074008;28;20032;-72
2024/02/03 07:08:18;;;;;;;13.68;3.67;;;10.00;99.90;;;;;;5072503;28;20511;-71
2024/02/03 07:10:44;;;;;;;12.05;5.32;;;10.00;99.90;;;;;;5073916;28;20079;-71
2024/02/03 07:13:10;;;;;;;9.25;4.30;;;10.00;99.90;;;;;;5071424;28;20480;-71
2024/02/03 07:15:35;;;;;;;10.35;3.80;;;10.00;99.90;;;;;;5072367;28;20040;-72
2024/02/03 07:18:01;;;;;;;10.05;4.25;;;9.90;99.90;;;;;;5072389;28;20044;-72
2024/02/03 07:20:27;;;;;;;8.02;4.13;;;10.00;99.90;;;;;;5072155;28;20411;-72
2024/02/03 07:22:52;;;;;;;13.18;3.90;;;9.90;99.90;;;;;;5072394;28;20032;-72
2024/02/03 07:25:18;;;;;;;13.95;4.20;;;10.00;99.90;;;;;;5072372;28;20037;-72
2024/02/03 07:27:44;;;;;;;10.63;4.72;;;9.90;99.90;;;;;;5072261;28;20037;-71
2024/02/03 07:30:10;;;;;;;9.48;4.43;;;10.00;99.90;;;;;;5073164;28;20044;-72
2024/02/03 07:32:35;;;;;;;11.77;4.57;;;10.00;99.90;;;;;;5073785;28;20179;-72
2024/02/03 07:35:01;;;;;;;11.10;4.20;;;10.10;99.90;;;;;;5072101;28;20488;-71
2024/02/03 07:37:26;;;;;;;9.50;3.90;;;10.10;99.90;;;;;;5073121;28;20048;-72
2024/02/03 07:39:52;;;;;;;7.90;3.90;;;10.10;99.90;;;;;;5073253;28;20044;-72
2024/02/03 07:42:18;;;;;;;10.30;3.75;;;10.10;99.90;;;;;;5072251;28;20036;-72
2024/02/03 07:44:44;;;;;;;10.07;4.25;;;10.10;99.90;;;;;;5073100;28;20047;-72
2024/02/03 07:47:11;;;;;;;11.00;4.15;;;10.20;99.90;;;;;;5071731;28;20388;-72
2024/02/03 07:49:37;;;;;;;13.95;4.47;;;10.20;99.90;;;;;;5073054;28;20048;-72
2024/02/03 07:52:03;;;;;;;15.25;4.00;;;10.30;99.90;;;;;;5073013;28;20040;-71
2024/02/03 07:54:28;;;;;;;9.88;4.28;;;10.20;99.90;;;;;;5071774;28;20072;-71
2024/02/03 07:56:54;;;;;;;13.30;5.18;;;10.30;99.90;;;;;;5071582;28;20041;-72
2024/02/03 07:59:19;;;;;;;10.50;3.97;;;10.20;99.90;;;;;;5071392;28;20047;-72
2024/02/03 08:01:46;;;;;;;10.27;4.07;;;10.40;99.90;;;;;;5072859;28;20500;-72
2024/02/03 08:04:11;;;;;;;10.18;4.13;;;10.40;99.90;;;;;;5071558;28;20393;-71
2024/02/03 08:06:37;;;;;;;16.58;4.10;;;10.30;99.90;;;;;;5071401;28;20037;-72
2024/02/03 08:09:03;;;;;;;12.30;4.00;;;10.30;99.90;;;;;;5072879;28;20428;-72
2024/02/03 08:11:29;;;;;;;9.52;4.32;;;10.30;99.90;;;;;;5071332;28;20037;-72
2024/02/03 08:13:54;;;;;;;8.45;4.55;;;10.40;99.90;;;;;;5071346;28;20418;-72
2024/02/03 08:16:20;;;;;;;12.30;3.90;;;10.30;99.90;;;;;;5072433;28;20040;-72
2024/02/03 08:18:46;;;;;;;16.67;4.85;;;10.40;99.90;;;;;;5072516;28;20034;-71
2024/02/03 08:21:12;;;;;;;10.25;4.53;;;10.40;99.90;;;;;;5070876;28;20067;-72
2024/02/03 08:23:38;;;;;;;9.82;4.00;;;10.30;99.90;;;;;;5071089;28;20484;-72
2024/02/03 08:26:03;;;;;;;10.40;4.22;;;10.40;99.90;;;;;;5072446;28;20040;-72
2024/02/03 08:28:29;;;;;;;9.82;3.58;;;10.40;99.90;;;;;;5072306;28;20033;-72
2024/02/03 08:30:55;;;;;;;12.60;4.22;;;10.40;99.90;;;;;;5070720;28;20046;-72
2024/02/03 08:33:22;;;;;;;14.32;4.85;;;10.40;99.90;;;;;;5072102;28;20072;-72
2024/02/03 08:35:48;;;;;;;12.73;3.50;;;10.40;99.90;;;;;;5071982;28;20530;-72
2024/02/03 08:38:13;;;;;;;10.80;4.53;;;10.40;99.90;;;;;;5070783;28;20115;-71
2024/02/03 08:40:39;;;;;;;6.22;3.42;;;10.40;99.90;;;;;;5072110;28;20045;-72
2024/02/03 08:43:06;;;;;;;18.05;4.15;;;10.50;99.90;;;;;;5071121;28;20585;-71
2024/02/03 08:45:31;;;;;;;9.30;4.25;;;10.40;99.90;;;;;;5072093;28;20475;-73
2024/02/03 08:47:57;;;;;;;10.70;3.85;;;10.50;99.90;;;;;;5054016;28;20119;-73
2024/02/03 08:50:23;;;;;;;13.18;3.50;;;10.50;99.90;;;;;;5070540;28;20115;-72
2024/02/03 08:52:48;;;;;;;11.18;3.58;;;10.40;99.90;;;;;;5070646;28;20124;-72
2024/02/03 08:55:15;;;;;;;7.38;3.55;;;10.60;99.90;;;;;;5070665;28;20051;-72
2024/02/03 08:57:41;;;;;;;11.32;3.53;;;10.50;99.90;;;;;;5067032;28;20040;-72
2024/02/03 09:00:07;;;;;;;8.27;3.55;;;10.50;99.90;;;;;;5071280;28;20037;-73
2024/02/03 09:02:33;;;;;;;12.07;3.78;;;10.50;99.90;;;;;;5053731;28;20040;-72
2024/02/03 09:05:01;;;;;;;10.98;3.63;;;10.50;99.90;;;;;;5068449;28;20090;-72
2024/02/03 09:07:27;;;;;;;13.52;3.65;;;10.50;99.90;;;;;;5070060;28;20455;-72
2024/02/03 09:09:53;;;;;;;11.07;3.78;;;10.50;99.90;;;;;;5071738;28;20098;-72
2024/02/03 09:12:19;;;;;;;12.38;3.80;;;10.50;99.90;;;;;;5070061;28;20044;-72
2024/02/03 09:14:44;;;;;;;10.88;3.83;;;10.50;99.90;;;;;;5070476;28;20407;-72
2024/02/03 09:17:10;;;;;;;10.05;3.38;;;10.50;99.90;;;;;;5071322;28;20085;-72
2024/02/03 09:19:35;;;;;;;14.35;3.67;;;10.40;99.90;;;;;;5069858;28;20045;-72
2024/02/03 09:22:01;;;;;;;8.63;3.38;;;10.50;99.90;;;;;;5071760;28;20062;-72
2024/02/03 09:24:27;;;;;;;13.90;4.30;;;10.60;99.90;;;;;;5068035;28;20039;-73
2024/02/03 09:26:52;;;;;;;11.93;3.63;;;10.60;99.90;;;;;;5068340;28;20029;-72
2024/02/03 09:29:18;;;;;;;11.93;3.72;;;10.60;99.90;;;;;;5071140;28;20094;-72
2024/02/03 09:31:44;;;;;;;12.55;3.03;;;10.60;99.90;;;;;;5070451;28;20546;-72
2024/02/03 09:34:09;;;;;;;10.68;4.53;;;10.60;99.90;;;;;;5071072;28;20048;-72
2024/02/03 09:36:39;;;;;;;9.95;3.90;;;10.60;99.90;;;;;;5069420;28;20040;-72
2024/02/03 09:39:05;;;;;;;11.38;3.67;;;10.70;99.90;;;;;;5069522;28;20564;-72
2024/02/03 09:41:32;;;;;;;10.68;3.97;;;10.60;99.90;;;;;;5069535;28;20048;-72
2024/02/03 09:43:59;;;;;;;10.43;3.42;;;10.60;99.90;;;;;;5071411;28;20082;-72
2024/02/03 09:46:25;;;;;;;12.57;3.60;;;10.60;99.90;;;;;;5070235;28;20040;-72
2024/02/03 09:48:50;;;;;;;9.85;3.60;;;10.60;99.90;;;;;;5071096;28;20036;-73
2024/02/03 09:51:16;;;;;;;9.75;3.65;;;10.60;99.90;;;;;;5070090;28;20062;-72
2024/02/03 09:53:44;;;;;;;10.30;3.58;;;10.70;99.90;;;;;;5070151;28;20048;-72
2024/02/03 09:56:10;;;;;;;13.05;3.38;;;10.70;99.90;;;;;;5069870;28;20040;-72
2024/02/03 09:58:36;;;;;;;11.93;3.85;;;10.70;99.90;;;;;;5069978;28;20415;-72
2024/02/03 10:01:02;;;;;;;10.88;3.65;;;10.70;99.90;;;;;;5069285;28;20040;-72
2024/02/03 10:03:27;;;;;;;11.43;4.10;;;10.70;99.90;;;;;;5052310;28;20072;-72
2024/02/03 10:06:01;;;;;;;15.85;5.38;;;10.70;99.90;;;;;;5069465;28;20070;-72
2024/02/03 10:08:28;;;;;;;12.93;4.32;;;10.80;99.90;;;;;;5052701;28;20460;-72
2024/02/03 10:10:55;;;;;;;12.38;4.60;;;10.70;99.90;;;;;;5069663;28;20090;-72
2024/02/03 10:13:22;;;;;;;9.23;3.78;;;10.80;99.90;;;;;;5071169;28;20055;-72
2024/02/03 10:15:59;;;;;;;15.48;4.72;;;10.70;99.90;;;;;;5085514;22;20512;-76
2024/02/03 10:18:25;;;;;;;12.80;4.78;;;10.80;99.90;;;;;;5013081;28;20500;-76
2024/02/03 10:20:50;;;;;;;12.25;4.60;;;10.80;99.90;;;;;;5013333;28;20033;-76
2024/02/03 10:23:16;;;;;;;12.75;3.78;;;10.80;99.90;;;;;;5030645;28;20041;-77
2024/02/03 10:25:42;;;;;;;16.05;4.65;;;10.90;99.90;;;;;;5040431;28;20112;-76
2024/02/03 10:28:08;;;;;;;12.68;4.35;;;10.90;99.90;;;;;;5019217;28;20400;-76
2024/02/03 10:30:35;;;;;;;18.15;4.63;;;10.90;99.90;;;;;;5013271;28;20099;-76
2024/02/03 10:33:03;;;;;;;21.20;4.18;;;10.90;99.90;;;;;;5013224;28;20041;-76
2024/02/03 10:35:30;;;;;;;14.18;4.38;;;10.90;99.90;;;;;;5030760;28;20099;-76
2024/02/03 10:37:56;;;;;;;9.43;4.18;;;10.80;99.90;;;;;;5013372;28;20180;-76
2024/02/03 10:40:25;;;;;;;14.73;5.15;;;10.90;99.90;;;;;;4996478;28;20076;-76
2024/02/03 10:42:53;;;;;;;16.27;4.22;;;10.90;99.90;;;;;;5013185;28;20041;-77
2024/02/03 10:45:20;;;;;;;12.68;4.43;;;10.90;99.90;;;;;;5013158;28;20498;-76
2024/02/03 10:47:49;;;;;;;9.88;3.90;;;11.00;99.90;;;;;;5032634;28;20040;-76
2024/02/03 10:50:15;;;;;;;9.90;4.15;;;11.00;99.90;;;;;;5016459;28;20501;-76
2024/02/03 10:52:45;;;;;;;10.95;3.92;;;11.00;99.90;;;;;;5016624;28;20095;-76
2024/02/03 10:55:15;;;;;;;9.68;3.58;;;11.10;99.90;;;;;;5016499;28;20079;-77
2024/02/03 10:57:45;;;;;;;10.90;4.00;;;11.20;99.90;;;;;;5016609;28;20045;-77
2024/02/03 11:00:15;;;;;;;11.40;3.33;;;11.20;99.90;;;;;;5024290;28;20044;-77
2024/02/03 11:02:52;;;;;;;13.93;4.47;;;11.40;99.90;;;;;;5039160;28;20493;-76
2024/02/03 11:05:23;;;;;;;10.70;4.65;;;11.40;99.90;;;;;;5024892;28;20064;-77
2024/02/03 11:07:48;;;;;;;8.25;4.55;;;11.50;99.90;;;;;;5043353;28;20040;-77
2024/02/03 11:10:17;;;;;;;10.07;4.25;;;11.50;99.90;;;;;;5044755;28;20033;-77
2024/02/03 11:12:43;;;;;;;14.80;3.38;;;11.50;99.90;;;;;;5018525;28;20041;-77
2024/02/03 11:15:14;;;;;;;10.38;3.72;;;11.50;99.90;;;;;;5016580;28;20469;-77
2024/02/03 11:17:44;;;;;;;14.00;4.28;;;11.50;99.90;;;;;;5016000;28;20045;-77
2024/02/03 11:20:20;;;;;;;8.05;3.03;;;11.50;99.90;;;;;;5016371;28;20436;-77
2024/02/03 11:22:51;;;;;;;15.55;3.28;;;11.60;99.90;;;;;;5016562;28;20052;-77
2024/02/03 11:25:16;;;;;;;13.55;4.90;;;11.50;99.90;;;;;;5016195;28;20033;-77
2024/02/03 11:27:42;;;;;;;11.13;3.72;;;11.50;99.90;;;;;;5016409;28;20036;-77
2024/02/03 11:30:08;;;;;;;11.10;3.58;;;11.50;99.90;;;;;;4999574;28;20042;-77
2024/02/03 11:32:34;;;;;;;14.38;3.85;;;11.60;99.90;;;;;;5015893;28;20037;-77
2024/02/03 11:35:04;;;;;;;10.90;3.42;;;11.60;99.90;;;;;;5033543;28;20048;-77
2024/02/03 11:37:29;;;;;;;14.52;4.22;;;11.70;99.90;;;;;;5015823;28;20099;-77
2024/02/03 11:40:05;;;;;;;18.67;4.32;;;11.70;99.90;;;;;;4999258;28;20037;-77
2024/02/03 11:42:32;;;;;;;10.45;3.20;;;11.70;99.90;;;;;;5016107;28;20034;-76
2024/02/03 11:44:58;;;;;;;7.47;3.72;;;11.80;99.90;;;;;;5033548;28;20037;-77
2024/02/03 11:47:24;;;;;;;14.15;4.35;;;11.80;99.90;;;;;;4999456;28;20041;-77
2024/02/03 11:49:51;;;;;;;10.48;3.28;;;11.90;99.90;;;;;;5033555;28;20033;-77
2024/02/03 11:52:16;;;;;;;6.57;2.88;;;11.90;99.90;;;;;;5033476;28;20064;-76
2024/02/03 11:54:42;;;;;;;9.85;3.35;;;11.90;99.90;;;;;;5015613;28;20535;-77
2024/02/03 11:57:08;;;;;;;13.00;3.22;;;11.80;99.90;;;;;;5015765;28;20452;-77
2024/02/03 11:59:34;;;;;;;9.60;3.42;;;12.00;99.90;;;;;;5014744;28;20555;-77
2024/02/03 12:01:59;;;;;;;11.57;3.03;;;11.90;99.90;;;;;;5032922;28;20038;-76
2024/02/03 12:04:27;;;;;;;9.63;4.50;;;12.00;99.90;;;;;;5015560;28;20037;-77
2024/02/03 12:06:55;;;;;;;14.02;2.85;;;12.00;99.90;;;;;;5015099;28;20563;-76
2024/02/03 12:09:21;;;;;;;8.45;3.33;;;12.00;99.90;;;;;;5014980;28;20505;-76
2024/02/03 12:11:51;;;;;;;10.93;3.00;;;12.10;99.90;;;;;;5033096;28;20057;-76
2024/02/03 12:14:21;;;;;;;7.80;2.55;;;12.10;99.90;;;;;;5015468;28;20144;-76
2024/02/03 12:16:47;;;;;;;5.10;2.72;;;12.10;99.90;;;;;;5014599;28;20041;-76
2024/02/03 12:19:13;;;;;;;10.05;3.22;;;12.10;99.90;;;;;;5014645;28;20037;-76
2024/02/03 12:21:39;;;;;;;7.18;2.22;;;12.10;99.90;;;;;;5032799;28;20041;-77
2024/02/03 12:24:08;;;;;;;10.35;3.10;;;12.20;99.90;;;;;;5015254;28;20041;-77
2024/02/03 12:26:34;;;;;;;6.15;2.58;;;12.20;99.90;;;;;;5032789;28;20121;-76
2024/02/03 12:29:01;;;;;;;12.60;3.13;;;12.10;99.90;;;;;;5014977;28;20052;-76
2024/02/03 12:31:26;;;;;;;5.70;2.72;;;12.10;99.90;;;;;;5032433;28;20127;-77
2024/02/03 12:33:52;;;;;;;8.02;2.50;;;12.10;99.90;;;;;;5032679;28;20041;-77
2024/02/03 12:36:18;;;;;;;8.43;2.90;;;12.00;99.90;;;;;;5014569;28;20480;-77
2024/02/03 12:38:43;;;;;;;7.85;2.70;;;12.10;99.90;;;;;;5014515;28;20037;-77